sensor_id;sensor_type;location;lat;lon;timestamp;temperature;humidity
612;DHT22;293;53.888;11.464;2022-12-24T00:01:30;5.60;99.90
612;DHT22;293;53.888;11.464;2022-12-24T00:03:57;5.60;99.90
612;DHT22;293;53.888;11.464;2022-12-24T00:06:24;5.60;99.90
612;DHT22;293;53.888;11.464;2022-12-24T00:08:51;5.70;99.90
612;DHT22;293;53.888;11.464;2022-12-24T00:11:19;5.60;99.90
612;DHT22;293;53.888;11.464;2022-12-24T00:13:46;5.70;99.90
612;DHT22;293;53.888;11.464;2022-12-24T00:16:15;5.60;99.90
612;DHT22;293;53.888;11.464;2022-12-24T00:18:41;5.50;99.90
612;DHT22;293;53.888;11.464;2022-12-24T00:21:08;5.30;99.90
612;DHT22;293;53.888;11.464;2022-12-24T00:23:35;5.30;99.90
612;DHT22;293;53.888;11.464;2022-12-24T00:26:02;5.30;99.90
612;DHT22;293;53.888;11.464;2022-12-24T00:28:29;5.30;99.90
612;DHT22;293;53.888;11.464;2022-12-24T00:30:56;5.30;99.90
612;DHT22;293;53.888;11.464;2022-12-24T00:33:24;5.40;99.90
612;DHT22;293;53.888;11.464;2022-12-24T00:35:51;5.40;99.90
612;DHT22;293;53.888;11.464;2022-12-24T00:38:18;5.40;99.90
612;DHT22;293;53.888;11.464;2022-12-24T00:40:45;5.40;99.90
612;DHT22;293;53.888;11.464;2022-12-24T00:43:12;5.40;99.90
612;DHT22;293;53.888;11.464;2022-12-24T00:45:39;5.40;99.90
612;DHT22;293;53.888;11.464;2022-12-24T00:48:06;5.50;99.90
612;DHT22;293;53.888;11.464;2022-12-24T00:50:34;5.40;99.90
612;DHT22;293;53.888;11.464;2022-12-24T00:53:01;5.40;99.90
612;DHT22;293;53.888;11.464;2022-12-24T00:55:28;5.40;99.90
612;DHT22;293;53.888;11.464;2022-12-24T00:57:55;5.40;99.90
612;DHT22;293;53.888;11.464;2022-12-24T01:00:22;5.30;99.90
612;DHT22;293;53.888;11.464;2022-12-24T01:02:49;5.30;99.90
612;DHT22;293;53.888;11.464;2022-12-24T01:05:16;5.30;99.90
612;DHT22;293;53.888;11.464;2022-12-24T01:07:47;5.30;99.90
612;DHT22;293;53.888;11.464;2022-12-24T01:10:17;5.50;99.90
612;DHT22;293;53.888;11.464;2022-12-24T01:12:45;5.40;99.90
612;DHT22;293;53.888;11.464;2022-12-24T01:15:13;5.40;99.90
612;DHT22;293;53.888;11.464;2022-12-24T01:17:40;5.50;99.90
612;DHT22;293;53.888;11.464;2022-12-24T01:20:11;5.50;99.90
612;DHT22;293;53.888;11.464;2022-12-24T01:22:38;5.50;99.90
612;DHT22;293;53.888;11.464;2022-12-24T01:25:07;5.60;99.90
612;DHT22;293;53.888;11.464;2022-12-24T01:27:34;5.60;99.90
612;DHT22;293;53.888;11.464;2022-12-24T01:30:01;5.60;99.90
612;DHT22;293;53.888;11.464;2022-12-24T01:32:28;5.60;99.90
612;DHT22;293;53.888;11.464;2022-12-24T01:34:55;5.60;99.90
612;DHT22;293;53.888;11.464;2022-12-24T01:37:22;5.60;99.90
612;DHT22;293;53.888;11.464;2022-12-24T01:39:49;5.60;99.90
612;DHT22;293;53.888;11.464;2022-12-24T01:42:19;5.60;99.90
612;DHT22;293;53.888;11.464;2022-12-24T01:45:45;5.70;99.90
612;DHT22;293;53.888;11.464;2022-12-24T01:48:16;5.60;99.90
612;DHT22;293;53.888;11.464;2022-12-24T01:50:45;5.60;99.90
612;DHT22;293;53.888;11.464;2022-12-24T01:53:13;5.60;99.90
612;DHT22;293;53.888;11.464;2022-12-24T01:55:41;5.60;99.90
612;DHT22;293;53.888;11.464;2022-12-24T01:58:13;5.50;99.90
612;DHT22;293;53.888;11.464;2022-12-24T02:00:40;5.50;99.90
612;DHT22;293;53.888;11.464;2022-12-24T02:03:07;5.50;99.90
612;DHT22;293;53.888;11.464;2022-12-24T02:05:39;5.40;99.90
612;DHT22;293;53.888;11.464;2022-12-24T02:08:07;5.50;99.90
612;DHT22;293;53.888;11.464;2022-12-24T02:10:35;5.50;99.90
612;DHT22;293;53.888;11.464;2022-12-24T02:13:03;5.50;99.90
612;DHT22;293;53.888;11.464;2022-12-24T02:15:37;5.50;99.90
612;DHT22;293;53.888;11.464;2022-12-24T02:18:13;5.50;99.90
612;DHT22;293;53.888;11.464;2022-12-24T02:24:13;5.50;99.90
612;DHT22;293;53.888;11.464;2022-12-24T02:27:05;5.40;99.90
612;DHT22;293;53.888;11.464;2022-12-24T02:29:58;5.40;99.90
612;DHT22;293;53.888;11.464;2022-12-24T02:32:31;5.40;99.90
612;DHT22;293;53.888;11.464;2022-12-24T02:35:03;5.40;99.90
612;DHT22;293;53.888;11.464;2022-12-24T02:37:34;5.50;99.90
612;DHT22;293;53.888;11.464;2022-12-24T02:40:06;5.60;99.90
612;DHT22;293;53.888;11.464;2022-12-24T02:42:38;5.50;99.90
612;DHT22;293;53.888;11.464;2022-12-24T02:45:10;5.40;99.90
612;DHT22;293;53.888;11.464;2022-12-24T02:47:38;5.30;99.90
612;DHT22;293;53.888;11.464;2022-12-24T02:50:08;5.40;99.90
612;DHT22;293;53.888;11.464;2022-12-24T02:52:36;5.40;99.90
612;DHT22;293;53.888;11.464;2022-12-24T02:55:07;5.40;99.90
612;DHT22;293;53.888;11.464;2022-12-24T02:57:44;5.50;99.90
612;DHT22;293;53.888;11.464;2022-12-24T03:00:17;5.50;99.90
612;DHT22;293;53.888;11.464;2022-12-24T03:02:56;5.40;99.90
612;DHT22;293;53.888;11.464;2022-12-24T03:05:28;5.40;99.90
612;DHT22;293;53.888;11.464;2022-12-24T03:08:02;5.40;99.90
612;DHT22;293;53.888;11.464;2022-12-24T03:10:36;5.40;99.90
612;DHT22;293;53.888;11.464;2022-12-24T03:13:11;5.40;99.90
612;DHT22;293;53.888;11.464;2022-12-24T03:15:41;5.40;99.90
612;DHT22;293;53.888;11.464;2022-12-24T03:18:10;5.30;99.90
612;DHT22;293;53.888;11.464;2022-12-24T03:20:40;5.30;99.90
612;DHT22;293;53.888;11.464;2022-12-24T03:23:07;5.20;99.90
612;DHT22;293;53.888;11.464;2022-12-24T03:25:38;5.20;99.90
612;DHT22;293;53.888;11.464;2022-12-24T03:28:08;5.10;99.90
612;DHT22;293;53.888;11.464;2022-12-24T03:30:40;5.20;99.90
612;DHT22;293;53.888;11.464;2022-12-24T03:33:07;5.10;99.90
612;DHT22;293;53.888;11.464;2022-12-24T03:35:34;5.10;99.90
612;DHT22;293;53.888;11.464;2022-12-24T03:38:01;5.10;99.90
612;DHT22;293;53.888;11.464;2022-12-24T03:40:28;5.10;99.90
612;DHT22;293;53.888;11.464;2022-12-24T03:42:55;5.10;99.90
612;DHT22;293;53.888;11.464;2022-12-24T03:45:22;5.20;99.90
612;DHT22;293;53.888;11.464;2022-12-24T03:47:50;5.20;99.90
612;DHT22;293;53.888;11.464;2022-12-24T03:50:17;5.10;99.90
612;DHT22;293;53.888;11.464;2022-12-24T03:52:44;5.10;99.90
612;DHT22;293;53.888;11.464;2022-12-24T03:55:10;5.10;99.90
612;DHT22;293;53.888;11.464;2022-12-24T03:57:38;5.10;99.90
612;DHT22;293;53.888;11.464;2022-12-24T04:00:06;5.10;99.90
612;DHT22;293;53.888;11.464;2022-12-24T04:02:33;5.10;99.90
612;DHT22;293;53.888;11.464;2022-12-24T04:05:02;5.10;99.90
612;DHT22;293;53.888;11.464;2022-12-24T04:07:30;5.10;99.90
612;DHT22;293;53.888;11.464;2022-12-24T04:09:57;5.10;99.90
612;DHT22;293;53.888;11.464;2022-12-24T04:12:24;5.10;99.90
612;DHT22;293;53.888;11.464;2022-12-24T04:14:51;5.00;99.90
612;DHT22;293;53.888;11.464;2022-12-24T04:17:18;5.10;99.90
612;DHT22;293;53.888;11.464;2022-12-24T04:19:45;5.30;99.90
612;DHT22;293;53.888;11.464;2022-12-24T04:22:13;5.10;99.90
612;DHT22;293;53.888;11.464;2022-12-24T04:24:40;5.10;99.90
612;DHT22;293;53.888;11.464;2022-12-24T04:27:07;5.20;99.90
612;DHT22;293;53.888;11.464;2022-12-24T04:29:34;5.20;99.90
612;DHT22;293;53.888;11.464;2022-12-24T04:32:00;5.30;99.90
612;DHT22;293;53.888;11.464;2022-12-24T04:34:27;5.20;99.90
612;DHT22;293;53.888;11.464;2022-12-24T04:36:54;5.20;99.90
612;DHT22;293;53.888;11.464;2022-12-24T04:39:22;5.20;99.90
612;DHT22;293;53.888;11.464;2022-12-24T04:41:49;5.10;99.90
612;DHT22;293;53.888;11.464;2022-12-24T04:44:16;5.20;99.90
612;DHT22;293;53.888;11.464;2022-12-24T04:46:43;5.20;99.90
612;DHT22;293;53.888;11.464;2022-12-24T04:49:10;5.30;99.90
612;DHT22;293;53.888;11.464;2022-12-24T04:51:37;5.20;99.90
612;DHT22;293;53.888;11.464;2022-12-24T04:54:04;5.20;99.90
612;DHT22;293;53.888;11.464;2022-12-24T04:56:32;5.30;99.90
612;DHT22;293;53.888;11.464;2022-12-24T04:59:00;5.30;99.90
612;DHT22;293;53.888;11.464;2022-12-24T05:01:28;5.30;99.90
612;DHT22;293;53.888;11.464;2022-12-24T05:03:56;5.30;99.90
612;DHT22;293;53.888;11.464;2022-12-24T05:06:25;5.30;99.90
612;DHT22;293;53.888;11.464;2022-12-24T05:08:53;5.30;99.90
612;DHT22;293;53.888;11.464;2022-12-24T05:11:20;5.30;99.90
612;DHT22;293;53.888;11.464;2022-12-24T05:13:49;5.30;99.90
612;DHT22;293;53.888;11.464;2022-12-24T05:16:17;5.30;99.90
612;DHT22;293;53.888;11.464;2022-12-24T05:18:44;5.30;99.90
612;DHT22;293;53.888;11.464;2022-12-24T05:21:14;5.30;99.90
612;DHT22;293;53.888;11.464;2022-12-24T05:23:41;5.30;99.90
612;DHT22;293;53.888;11.464;2022-12-24T05:26:28;5.40;99.90
612;DHT22;293;53.888;11.464;2022-12-24T05:28:58;5.40;99.90
612;DHT22;293;53.888;11.464;2022-12-24T05:31:27;5.60;99.90
612;DHT22;293;53.888;11.464;2022-12-24T05:33:55;5.40;99.90
612;DHT22;293;53.888;11.464;2022-12-24T05:36:22;5.40;99.90
612;DHT22;293;53.888;11.464;2022-12-24T05:38:50;5.40;99.90
612;DHT22;293;53.888;11.464;2022-12-24T05:41:17;5.40;99.90
612;DHT22;293;53.888;11.464;2022-12-24T05:43:44;5.50;99.90
612;DHT22;293;53.888;11.464;2022-12-24T05:46:15;5.40;99.90
612;DHT22;293;53.888;11.464;2022-12-24T05:48:43;5.50;99.90
612;DHT22;293;53.888;11.464;2022-12-24T05:51:12;5.50;99.90
612;DHT22;293;53.888;11.464;2022-12-24T05:53:39;5.40;99.90
612;DHT22;293;53.888;11.464;2022-12-24T05:56:08;5.40;99.90
612;DHT22;293;53.888;11.464;2022-12-24T05:58:36;5.50;99.90
612;DHT22;293;53.888;11.464;2022-12-24T06:01:04;5.40;99.90
612;DHT22;293;53.888;11.464;2022-12-24T06:03:33;5.40;99.90
612;DHT22;293;53.888;11.464;2022-12-24T06:06:02;5.50;99.90
612;DHT22;293;53.888;11.464;2022-12-24T06:08:30;5.40;99.90
612;DHT22;293;53.888;11.464;2022-12-24T06:10:58;5.40;99.90
612;DHT22;293;53.888;11.464;2022-12-24T06:13:26;5.40;99.90
612;DHT22;293;53.888;11.464;2022-12-24T06:15:53;5.40;99.90
612;DHT22;293;53.888;11.464;2022-12-24T06:18:21;5.40;99.90
612;DHT22;293;53.888;11.464;2022-12-24T06:20:50;5.40;99.90
612;DHT22;293;53.888;11.464;2022-12-24T06:23:18;5.40;99.90
612;DHT22;293;53.888;11.464;2022-12-24T06:25:45;5.40;99.90
612;DHT22;293;53.888;11.464;2022-12-24T06:28:11;5.30;99.90
612;DHT22;293;53.888;11.464;2022-12-24T06:30:39;5.30;99.90
612;DHT22;293;53.888;11.464;2022-12-24T06:33:06;5.30;99.90
612;DHT22;293;53.888;11.464;2022-12-24T06:35:33;5.30;99.90
612;DHT22;293;53.888;11.464;2022-12-24T06:38:01;5.40;99.90
612;DHT22;293;53.888;11.464;2022-12-24T06:40:28;5.40;99.90
612;DHT22;293;53.888;11.464;2022-12-24T06:42:55;5.40;99.90
612;DHT22;293;53.888;11.464;2022-12-24T06:45:22;5.40;99.90
612;DHT22;293;53.888;11.464;2022-12-24T06:47:49;5.30;99.90
612;DHT22;293;53.888;11.464;2022-12-24T06:50:16;5.30;99.90
612;DHT22;293;53.888;11.464;2022-12-24T06:52:42;5.30;99.90
612;DHT22;293;53.888;11.464;2022-12-24T06:55:11;5.90;99.90
612;DHT22;293;53.888;11.464;2022-12-24T06:57:37;5.20;99.90
612;DHT22;293;53.888;11.464;2022-12-24T07:00:06;5.20;99.90
612;DHT22;293;53.888;11.464;2022-12-24T07:02:33;5.20;99.90
612;DHT22;293;53.888;11.464;2022-12-24T07:05:00;5.30;99.90
612;DHT22;293;53.888;11.464;2022-12-24T07:07:26;5.20;99.90
612;DHT22;293;53.888;11.464;2022-12-24T07:09:54;5.20;99.90
612;DHT22;293;53.888;11.464;2022-12-24T07:12:23;4.50;99.90
612;DHT22;293;53.888;11.464;2022-12-24T07:14:50;5.10;99.90
612;DHT22;293;53.888;11.464;2022-12-24T07:17:16;5.10;99.90
612;DHT22;293;53.888;11.464;2022-12-24T07:19:43;5.10;99.90
612;DHT22;293;53.888;11.464;2022-12-24T07:22:10;5.10;99.90
612;DHT22;293;53.888;11.464;2022-12-24T07:24:37;5.00;99.90
612;DHT22;293;53.888;11.464;2022-12-24T07:27:04;5.00;99.90
612;DHT22;293;53.888;11.464;2022-12-24T07:29:32;4.90;99.90
612;DHT22;293;53.888;11.464;2022-12-24T07:31:59;4.90;99.90
612;DHT22;293;53.888;11.464;2022-12-24T07:34:26;4.90;99.90
612;DHT22;293;53.888;11.464;2022-12-24T07:36:53;5.00;99.90
612;DHT22;293;53.888;11.464;2022-12-24T07:39:20;4.90;99.90
612;DHT22;293;53.888;11.464;2022-12-24T07:41:47;4.90;99.90
612;DHT22;293;53.888;11.464;2022-12-24T07:44:16;4.90;99.90
612;DHT22;293;53.888;11.464;2022-12-24T07:46:44;4.80;99.90
612;DHT22;293;53.888;11.464;2022-12-24T07:49:11;4.80;99.90
612;DHT22;293;53.888;11.464;2022-12-24T07:51:38;4.90;99.90
612;DHT22;293;53.888;11.464;2022-12-24T07:54:05;4.80;99.90
612;DHT22;293;53.888;11.464;2022-12-24T07:56:32;4.80;99.90
612;DHT22;293;53.888;11.464;2022-12-24T07:58:58;4.80;99.90
612;DHT22;293;53.888;11.464;2022-12-24T08:01:25;4.90;99.90
612;DHT22;293;53.888;11.464;2022-12-24T08:03:54;4.90;99.90
612;DHT22;293;53.888;11.464;2022-12-24T08:06:20;4.90;99.90
612;DHT22;293;53.888;11.464;2022-12-24T08:08:48;4.90;99.90
612;DHT22;293;53.888;11.464;2022-12-24T08:11:15;4.90;99.90
612;DHT22;293;53.888;11.464;2022-12-24T08:13:42;4.90;99.90
612;DHT22;293;53.888;11.464;2022-12-24T08:16:09;4.80;99.90
612;DHT22;293;53.888;11.464;2022-12-24T08:18:36;5.00;99.90
612;DHT22;293;53.888;11.464;2022-12-24T08:21:06;5.00;99.90
612;DHT22;293;53.888;11.464;2022-12-24T08:23:33;5.00;99.90
612;DHT22;293;53.888;11.464;2022-12-24T08:26:00;5.00;99.90
612;DHT22;293;53.888;11.464;2022-12-24T08:28:27;5.10;99.90
612;DHT22;293;53.888;11.464;2022-12-24T08:30:54;5.10;99.90
612;DHT22;293;53.888;11.464;2022-12-24T08:33:21;5.10;99.90
612;DHT22;293;53.888;11.464;2022-12-24T08:35:48;5.30;99.90
612;DHT22;293;53.888;11.464;2022-12-24T08:38:16;5.20;99.90
612;DHT22;293;53.888;11.464;2022-12-24T08:40:43;5.30;99.90
612;DHT22;293;53.888;11.464;2022-12-24T08:43:11;5.30;99.90
612;DHT22;293;53.888;11.464;2022-12-24T08:45:39;5.40;99.90
612;DHT22;293;53.888;11.464;2022-12-24T08:48:06;5.40;99.90
612;DHT22;293;53.888;11.464;2022-12-24T08:50:34;5.40;99.90
612;DHT22;293;53.888;11.464;2022-12-24T08:53:01;5.40;99.90
612;DHT22;293;53.888;11.464;2022-12-24T08:55:29;5.50;99.90
612;DHT22;293;53.888;11.464;2022-12-24T08:57:56;5.50;99.90
612;DHT22;293;53.888;11.464;2022-12-24T09:00:23;5.50;99.90
612;DHT22;293;53.888;11.464;2022-12-24T09:02:50;5.50;99.90
612;DHT22;293;53.888;11.464;2022-12-24T09:05:17;5.50;99.90
612;DHT22;293;53.888;11.464;2022-12-24T09:07:44;5.60;99.90
612;DHT22;293;53.888;11.464;2022-12-24T09:10:11;5.60;99.90
612;DHT22;293;53.888;11.464;2022-12-24T09:12:39;5.60;99.90
612;DHT22;293;53.888;11.464;2022-12-24T09:15:07;5.60;99.90
612;DHT22;293;53.888;11.464;2022-12-24T09:17:34;5.70;99.90
612;DHT22;293;53.888;11.464;2022-12-24T09:20:02;5.70;99.90
612;DHT22;293;53.888;11.464;2022-12-24T09:22:29;5.70;99.90
612;DHT22;293;53.888;11.464;2022-12-24T09:24:56;5.70;99.90
612;DHT22;293;53.888;11.464;2022-12-24T09:27:22;5.80;99.90
612;DHT22;293;53.888;11.464;2022-12-24T09:29:51;5.70;99.90
612;DHT22;293;53.888;11.464;2022-12-24T09:32:18;5.70;99.90
612;DHT22;293;53.888;11.464;2022-12-24T09:34:45;5.70;99.90
612;DHT22;293;53.888;11.464;2022-12-24T09:37:11;5.70;99.90
612;DHT22;293;53.888;11.464;2022-12-24T09:39:38;5.70;99.90
612;DHT22;293;53.888;11.464;2022-12-24T09:42:11;5.70;99.90
612;DHT22;293;53.888;11.464;2022-12-24T09:44:45;5.70;99.90
612;DHT22;293;53.888;11.464;2022-12-24T09:47:21;5.70;99.90
612;DHT22;293;53.888;11.464;2022-12-24T09:49:51;5.70;99.90
612;DHT22;293;53.888;11.464;2022-12-24T09:52:32;6.10;99.90
612;DHT22;293;53.888;11.464;2022-12-24T09:55:06;5.70;99.90
612;DHT22;293;53.888;11.464;2022-12-24T09:57:35;5.70;99.90
612;DHT22;293;53.888;11.464;2022-12-24T10:00:10;5.70;99.90
612;DHT22;293;53.888;11.464;2022-12-24T10:02:43;5.70;99.90
612;DHT22;293;53.888;11.464;2022-12-24T10:05:13;5.70;99.90
612;DHT22;293;53.888;11.464;2022-12-24T10:07:46;5.50;99.90
612;DHT22;293;53.888;11.464;2022-12-24T10:10:20;5.60;99.90
612;DHT22;293;53.888;11.464;2022-12-24T10:12:54;5.70;99.90
612;DHT22;293;53.888;11.464;2022-12-24T10:15:28;6.20;99.90
612;DHT22;293;53.888;11.464;2022-12-24T10:18:18;5.80;99.90
612;DHT22;293;53.888;11.464;2022-12-24T10:20:55;5.80;99.90
612;DHT22;293;53.888;11.464;2022-12-24T10:23:27;5.80;99.90
612;DHT22;293;53.888;11.464;2022-12-24T10:26:06;5.90;99.90
612;DHT22;293;53.888;11.464;2022-12-24T10:28:43;5.90;99.90
612;DHT22;293;53.888;11.464;2022-12-24T10:31:11;5.90;99.90
612;DHT22;293;53.888;11.464;2022-12-24T10:33:43;5.90;99.90
612;DHT22;293;53.888;11.464;2022-12-24T10:36:14;5.90;99.90
612;DHT22;293;53.888;11.464;2022-12-24T10:38:42;5.90;99.90
612;DHT22;293;53.888;11.464;2022-12-24T10:41:10;5.90;99.90
612;DHT22;293;53.888;11.464;2022-12-24T10:43:39;6.00;99.90
612;DHT22;293;53.888;11.464;2022-12-24T10:46:15;6.30;99.90
612;DHT22;293;53.888;11.464;2022-12-24T10:48:48;6.00;99.90
612;DHT22;293;53.888;11.464;2022-12-24T10:51:20;6.00;99.90
612;DHT22;293;53.888;11.464;2022-12-24T10:53:50;6.20;99.90
612;DHT22;293;53.888;11.464;2022-12-24T10:56:18;6.10;99.90
612;DHT22;293;53.888;11.464;2022-12-24T10:58:51;6.10;99.90
612;DHT22;293;53.888;11.464;2022-12-24T11:01:19;6.10;99.90
612;DHT22;293;53.888;11.464;2022-12-24T11:03:59;6.10;99.90
612;DHT22;293;53.888;11.464;2022-12-24T11:06:26;6.00;99.90
612;DHT22;293;53.888;11.464;2022-12-24T11:09:11;6.00;99.90
612;DHT22;293;53.888;11.464;2022-12-24T11:11:39;6.00;99.90
612;DHT22;293;53.888;11.464;2022-12-24T11:14:12;6.00;99.90
612;DHT22;293;53.888;11.464;2022-12-24T11:16:50;6.10;99.90
612;DHT22;293;53.888;11.464;2022-12-24T11:19:26;6.00;99.90
612;DHT22;293;53.888;11.464;2022-12-24T11:22:00;6.00;99.90
612;DHT22;293;53.888;11.464;2022-12-24T11:24:29;6.00;99.90
612;DHT22;293;53.888;11.464;2022-12-24T11:27:22;6.10;99.90
612;DHT22;293;53.888;11.464;2022-12-24T11:29:49;6.10;99.90
612;DHT22;293;53.888;11.464;2022-12-24T11:32:18;6.10;99.90
612;DHT22;293;53.888;11.464;2022-12-24T11:34:47;6.10;99.90
612;DHT22;293;53.888;11.464;2022-12-24T11:37:16;6.20;99.90
612;DHT22;293;53.888;11.464;2022-12-24T11:39:46;6.60;99.90
612;DHT22;293;53.888;11.464;2022-12-24T11:42:24;6.20;99.90
612;DHT22;293;53.888;11.464;2022-12-24T11:44:54;6.10;99.90
612;DHT22;293;53.888;11.464;2022-12-24T11:47:31;6.10;99.90
612;DHT22;293;53.888;11.464;2022-12-24T11:52:56;6.10;99.90
612;DHT22;293;53.888;11.464;2022-12-24T11:55:34;6.10;99.90
612;DHT22;293;53.888;11.464;2022-12-24T11:58:15;6.10;99.90
612;DHT22;293;53.888;11.464;2022-12-24T12:00:45;6.20;99.90
612;DHT22;293;53.888;11.464;2022-12-24T12:03:28;7.50;99.90
612;DHT22;293;53.888;11.464;2022-12-24T12:05:58;6.20;99.90
612;DHT22;293;53.888;11.464;2022-12-24T12:08:29;6.20;99.90
612;DHT22;293;53.888;11.464;2022-12-24T12:10:57;6.20;99.90
612;DHT22;293;53.888;11.464;2022-12-24T12:13:28;6.20;99.90
612;DHT22;293;53.888;11.464;2022-12-24T12:16:04;6.20;99.90
612;DHT22;293;53.888;11.464;2022-12-24T12:18:35;6.20;99.90
612;DHT22;293;53.888;11.464;2022-12-24T12:21:05;6.20;99.90
612;DHT22;293;53.888;11.464;2022-12-24T12:23:41;6.20;99.90
612;DHT22;293;53.888;11.464;2022-12-24T12:26:12;6.20;99.90
612;DHT22;293;53.888;11.464;2022-12-24T12:28:44;6.20;99.90
612;DHT22;293;53.888;11.464;2022-12-24T12:31:18;6.10;99.90
612;DHT22;293;53.888;11.464;2022-12-24T12:33:50;6.10;99.90
612;DHT22;293;53.888;11.464;2022-12-24T12:36:24;6.10;99.90
612;DHT22;293;53.888;11.464;2022-12-24T12:38:53;6.10;99.90
612;DHT22;293;53.888;11.464;2022-12-24T12:41:31;6.10;99.90
612;DHT22;293;53.888;11.464;2022-12-24T12:44:25;6.20;99.90
612;DHT22;293;53.888;11.464;2022-12-24T12:47:10;6.20;99.90
612;DHT22;293;53.888;11.464;2022-12-24T12:49:46;6.10;99.90
612;DHT22;293;53.888;11.464;2022-12-24T12:52:21;6.20;99.90
612;DHT22;293;53.888;11.464;2022-12-24T12:55:09;6.20;99.90
612;DHT22;293;53.888;11.464;2022-12-24T12:57:41;6.20;99.90
612;DHT22;293;53.888;11.464;2022-12-24T13:00:14;6.10;99.90
612;DHT22;293;53.888;11.464;2022-12-24T13:03:07;6.20;99.90
612;DHT22;293;53.888;11.464;2022-12-24T13:11:58;6.20;99.90
612;DHT22;293;53.888;11.464;2022-12-24T13:14:37;6.20;99.90
612;DHT22;293;53.888;11.464;2022-12-24T13:17:23;6.20;99.90
612;DHT22;293;53.888;11.464;2022-12-24T13:20:09;6.20;99.90
612;DHT22;293;53.888;11.464;2022-12-24T13:22:37;6.10;99.90
612;DHT22;293;53.888;11.464;2022-12-24T13:25:04;6.10;99.90
612;DHT22;293;53.888;11.464;2022-12-24T13:27:34;6.10;99.90
612;DHT22;293;53.888;11.464;2022-12-24T13:30:03;6.20;99.90
612;DHT22;293;53.888;11.464;2022-12-24T13:32:51;6.10;99.90
612;DHT22;293;53.888;11.464;2022-12-24T13:35:32;6.20;99.90
612;DHT22;293;53.888;11.464;2022-12-24T13:41:36;6.10;99.90
612;DHT22;293;53.888;11.464;2022-12-24T13:44:17;6.20;99.90
612;DHT22;293;53.888;11.464;2022-12-24T13:46:50;6.20;99.90
612;DHT22;293;53.888;11.464;2022-12-24T13:49:24;6.20;99.90
612;DHT22;293;53.888;11.464;2022-12-24T13:52:07;6.10;99.90
612;DHT22;293;53.888;11.464;2022-12-24T13:54:41;6.10;99.90
612;DHT22;293;53.888;11.464;2022-12-24T14:00:26;6.10;99.90
612;DHT22;293;53.888;11.464;2022-12-24T14:02:57;6.10;99.90
612;DHT22;293;53.888;11.464;2022-12-24T14:05:31;6.10;99.90
612;DHT22;293;53.888;11.464;2022-12-24T14:07:59;6.10;99.90
612;DHT22;293;53.888;11.464;2022-12-24T14:10:30;6.10;99.90
612;DHT22;293;53.888;11.464;2022-12-24T14:12:57;6.60;99.90
612;DHT22;293;53.888;11.464;2022-12-24T14:18:26;6.00;99.90
612;DHT22;293;53.888;11.464;2022-12-24T14:20:55;6.00;99.90
612;DHT22;293;53.888;11.464;2022-12-24T14:23:46;5.90;99.90
612;DHT22;293;53.888;11.464;2022-12-24T14:26:17;5.90;99.90
612;DHT22;293;53.888;11.464;2022-12-24T14:28:47;5.90;99.90
612;DHT22;293;53.888;11.464;2022-12-24T14:31:17;6.00;99.90
612;DHT22;293;53.888;11.464;2022-12-24T14:33:46;6.10;99.90
612;DHT22;293;53.888;11.464;2022-12-24T14:36:19;6.00;99.90
612;DHT22;293;53.888;11.464;2022-12-24T14:38:47;5.90;99.90
612;DHT22;293;53.888;11.464;2022-12-24T14:41:26;6.00;99.90
612;DHT22;293;53.888;11.464;2022-12-24T14:44:04;5.90;99.90
612;DHT22;293;53.888;11.464;2022-12-24T14:46:38;5.90;99.90
612;DHT22;293;53.888;11.464;2022-12-24T14:49:15;5.90;99.90
612;DHT22;293;53.888;11.464;2022-12-24T14:51:49;6.00;99.90
612;DHT22;293;53.888;11.464;2022-12-24T14:54:33;6.10;99.90
612;DHT22;293;53.888;11.464;2022-12-24T14:57:21;6.00;99.90
612;DHT22;293;53.888;11.464;2022-12-24T14:59:50;6.00;99.90
612;DHT22;293;53.888;11.464;2022-12-24T15:02:29;6.10;99.90
612;DHT22;293;53.888;11.464;2022-12-24T15:05:07;6.10;99.90
612;DHT22;293;53.888;11.464;2022-12-24T15:07:37;6.00;99.90
612;DHT22;293;53.888;11.464;2022-12-24T15:10:32;6.00;99.90
612;DHT22;293;53.888;11.464;2022-12-24T15:13:02;6.50;99.90
612;DHT22;293;53.888;11.464;2022-12-24T15:15:30;6.00;99.90
612;DHT22;293;53.888;11.464;2022-12-24T15:17:58;6.10;99.90
612;DHT22;293;53.888;11.464;2022-12-24T15:20:27;6.10;99.90
612;DHT22;293;53.888;11.464;2022-12-24T15:22:57;6.10;99.90
612;DHT22;293;53.888;11.464;2022-12-24T15:25:26;6.10;99.90
612;DHT22;293;53.888;11.464;2022-12-24T15:27:53;7.10;99.90
612;DHT22;293;53.888;11.464;2022-12-24T15:30:22;6.10;99.90
612;DHT22;293;53.888;11.464;2022-12-24T15:32:50;6.10;99.90
612;DHT22;293;53.888;11.464;2022-12-24T15:35:46;6.00;99.90
612;DHT22;293;53.888;11.464;2022-12-24T15:38:23;6.20;99.90
612;DHT22;293;53.888;11.464;2022-12-24T15:40:52;6.10;99.90
612;DHT22;293;53.888;11.464;2022-12-24T15:43:20;6.10;99.90
612;DHT22;293;53.888;11.464;2022-12-24T15:45:47;5.90;99.90
612;DHT22;293;53.888;11.464;2022-12-24T15:48:18;5.90;99.90
612;DHT22;293;53.888;11.464;2022-12-24T15:50:51;5.90;99.90
612;DHT22;293;53.888;11.464;2022-12-24T15:53:23;5.90;99.90
612;DHT22;293;53.888;11.464;2022-12-24T15:56:08;5.90;99.90
612;DHT22;293;53.888;11.464;2022-12-24T15:58:37;5.90;99.90
612;DHT22;293;53.888;11.464;2022-12-24T16:01:24;5.90;99.90
612;DHT22;293;53.888;11.464;2022-12-24T16:03:57;6.10;99.90
612;DHT22;293;53.888;11.464;2022-12-24T16:06:26;6.00;99.90
612;DHT22;293;53.888;11.464;2022-12-24T16:08:54;5.90;99.90
612;DHT22;293;53.888;11.464;2022-12-24T16:11:24;6.00;99.90
612;DHT22;293;53.888;11.464;2022-12-24T16:13:59;6.00;99.90
612;DHT22;293;53.888;11.464;2022-12-24T16:16:33;6.00;99.90
612;DHT22;293;53.888;11.464;2022-12-24T16:19:01;6.00;99.90
612;DHT22;293;53.888;11.464;2022-12-24T16:21:34;5.90;99.90
612;DHT22;293;53.888;11.464;2022-12-24T16:24:06;5.90;99.90
612;DHT22;293;53.888;11.464;2022-12-24T16:26:34;5.90;99.90
612;DHT22;293;53.888;11.464;2022-12-24T16:29:02;5.80;99.90
612;DHT22;293;53.888;11.464;2022-12-24T16:31:31;5.90;99.90
612;DHT22;293;53.888;11.464;2022-12-24T16:33:59;5.90;99.90
612;DHT22;293;53.888;11.464;2022-12-24T16:36:27;5.90;99.90
612;DHT22;293;53.888;11.464;2022-12-24T16:38:56;5.90;99.90
612;DHT22;293;53.888;11.464;2022-12-24T16:41:49;5.90;99.90
612;DHT22;293;53.888;11.464;2022-12-24T16:47:00;5.90;99.90
612;DHT22;293;53.888;11.464;2022-12-24T16:49:27;5.90;99.90
612;DHT22;293;53.888;11.464;2022-12-24T16:51:55;5.80;99.90
612;DHT22;293;53.888;11.464;2022-12-24T16:54:23;5.90;99.90
612;DHT22;293;53.888;11.464;2022-12-24T16:56:50;5.80;99.90
612;DHT22;293;53.888;11.464;2022-12-24T16:59:19;5.90;99.90
612;DHT22;293;53.888;11.464;2022-12-24T17:01:47;5.90;99.90
612;DHT22;293;53.888;11.464;2022-12-24T17:04:16;5.90;99.90
612;DHT22;293;53.888;11.464;2022-12-24T17:06:43;6.00;99.90
612;DHT22;293;53.888;11.464;2022-12-24T17:09:11;6.00;99.90
612;DHT22;293;53.888;11.464;2022-12-24T17:11:39;5.90;99.90
612;DHT22;293;53.888;11.464;2022-12-24T17:14:06;6.00;99.90
612;DHT22;293;53.888;11.464;2022-12-24T17:16:33;6.00;99.90
612;DHT22;293;53.888;11.464;2022-12-24T17:19:02;6.00;99.90
612;DHT22;293;53.888;11.464;2022-12-24T17:21:29;6.20;99.90